Terminal Aerodrome Forecast
Issued by NWS Wilmington, OH

Current Version | Previous Version | Graphics & Text | Print | Product List | Glossary On
Versions: 1 2 3 4 5 6 7 8 9 10 11 12 13 14 15 16 17 18 19 20 21 22 23
000
FTUS41 KILN 130800 AAA
TAFDAY
TAF AMD
KDAY 130821Z 1308/1406 32005KT P6SM OVC035
      TEMPO 1309/1310 OVC030
     FM131000 32009KT P6SM SCT008 OVC025
      TEMPO 1310/1313 BKN008 OVC020
     FM131300 31011KT P6SM FEW030
     FM132300 03004KT P6SM SKC=

USA.gov is the U.S. government's official web portal to all federal, state and local government web resources and services.